Time;durP1;ratioP1;P1;durP2;ratioP2;P2;SDS_P1;SDS_P2;PMS_P1;PMS_P2;Temp;Humidity;BMP_temperature;BMP_pressure;BME280_temperature;BME280_humidity;BME280_pressure;Samples;Min_cycle;Max_cycle;Signal;HPM_P1;HPM_P2
2020/12/11 00:01:28;;;;;;;28.07;18.87;;;1.20;99.90;;;;;;5034856;28;20049;-87
2020/12/11 00:03:54;;;;;;;32.10;20.13;;;1.20;99.90;;;;;;5035480;28;20068;-87
2020/12/11 00:06:21;;;;;;;29.03;18.87;;;1.20;99.90;;;;;;5034348;28;20079;-86
2020/12/11 00:08:47;;;;;;;33.33;20.87;;;1.30;99.90;;;;;;5037900;28;20037;-85
2020/12/11 00:11:12;;;;;;;33.27;19.90;;;1.30;99.90;;;;;;5055315;28;20080;-85
2020/12/11 00:13:38;;;;;;;34.90;21.77;;;1.30;99.90;;;;;;5036495;28;20125;-85
2020/12/11 00:16:05;;;;;;;35.23;21.50;;;1.20;99.90;;;;;;5036316;28;20031;-85
2020/12/11 00:18:31;;;;;;;32.40;18.80;;;1.20;99.90;;;;;;5052086;28;20480;-85
2020/12/11 00:21:00;;;;;;;35.10;20.63;;;1.20;99.90;;;;;;5056383;28;20037;-85
2020/12/11 00:23:26;;;;;;;31.67;18.97;;;1.20;99.90;;;;;;5037458;28;20026;-85
2020/12/11 00:25:58;;;;;;;33.00;20.57;;;1.20;99.90;;;;;;5036551;28;20029;-85
2020/12/11 00:28:25;;;;;;;34.73;19.90;;;1.20;99.90;;;;;;5046193;28;20028;-85
2020/12/11 00:30:50;;;;;;;33.57;20.87;;;1.20;99.90;;;;;;5053888;28;20025;-85
2020/12/11 00:33:16;;;;;;;35.37;21.30;;;1.20;99.90;;;;;;5056255;28;20052;-85
2020/12/11 00:35:41;;;;;;;31.70;20.00;;;1.20;99.90;;;;;;5047357;28;20389;-85
2020/12/11 00:38:07;;;;;;;31.70;19.80;;;1.20;99.90;;;;;;5036102;28;20040;-85
2020/12/11 00:40:32;;;;;;;34.27;20.90;;;1.20;99.90;;;;;;5035924;28;20033;-85
2020/12/11 00:42:58;;;;;;;32.83;21.37;;;1.20;99.90;;;;;;5035733;28;20025;-85
2020/12/11 00:45:23;;;;;;;33.13;20.47;;;1.20;99.90;;;;;;5034440;28;20025;-85
2020/12/11 00:47:49;;;;;;;32.90;20.83;;;1.20;99.90;;;;;;5034604;28;20032;-85
2020/12/11 00:50:14;;;;;;;34.40;21.33;;;1.20;99.90;;;;;;5035801;28;20030;-85
2020/12/11 00:52:40;;;;;;;34.37;20.47;;;1.20;99.90;;;;;;5036005;28;20034;-85
2020/12/11 00:55:05;;;;;;;31.63;20.53;;;1.20;99.90;;;;;;5035578;28;20075;-85
2020/12/11 00:57:31;;;;;;;31.70;19.67;;;1.20;99.90;;;;;;5035678;28;20406;-87
2020/12/11 00:59:56;;;;;;;32.30;21.07;;;1.20;99.90;;;;;;5019754;28;20107;-86
2020/12/11 01:02:22;;;;;;;29.57;19.40;;;1.20;99.90;;;;;;5046129;28;20113;-85
2020/12/11 01:04:47;;;;;;;31.93;19.90;;;1.20;99.90;;;;;;5035796;28;20029;-85
2020/12/11 01:07:13;;;;;;;29.03;19.90;;;1.20;99.90;;;;;;5035949;28;20485;-85
2020/12/11 01:09:38;;;;;;;29.20;19.23;;;1.20;99.90;;;;;;5035696;28;20466;-85
2020/12/11 01:12:04;;;;;;;32.07;19.57;;;1.10;99.90;;;;;;5035432;28;20045;-85
2020/12/11 01:14:29;;;;;;;30.37;19.40;;;1.20;99.90;;;;;;5035733;28;20376;-85
2020/12/11 01:16:55;;;;;;;31.83;20.33;;;1.20;99.90;;;;;;5036498;28;20025;-85
2020/12/11 01:19:20;;;;;;;31.33;20.97;;;1.10;99.90;;;;;;5037320;28;20070;-85
2020/12/11 01:21:46;;;;;;;31.30;20.00;;;1.10;99.90;;;;;;5051734;28;20082;-85
2020/12/11 01:24:12;;;;;;;30.30;19.70;;;1.10;99.90;;;;;;5039481;28;20037;-85
2020/12/11 01:26:37;;;;;;;31.30;19.60;;;1.20;99.90;;;;;;5035114;28;20548;-86
2020/12/11 01:29:03;;;;;;;30.77;20.73;;;1.20;99.90;;;;;;5035035;28;20021;-85
2020/12/11 01:31:28;;;;;;;30.10;20.27;;;1.20;99.90;;;;;;5034687;28;20450;-85
2020/12/11 01:33:54;;;;;;;30.07;19.53;;;1.10;99.90;;;;;;5035291;28;20033;-85
2020/12/11 01:36:23;;;;;;;29.07;19.27;;;1.10;99.90;;;;;;5035182;28;20057;-84
2020/12/11 01:38:49;;;;;;;30.27;18.90;;;1.10;99.90;;;;;;5035284;28;20021;-85
2020/12/11 01:41:15;;;;;;;31.10;19.87;;;1.10;99.90;;;;;;5034776;28;20528;-85
2020/12/11 01:43:40;;;;;;;28.70;18.77;;;1.10;99.90;;;;;;5034091;28;20029;-85
2020/12/11 01:46:06;;;;;;;30.93;20.10;;;1.20;99.90;;;;;;5033516;28;20041;-85
2020/12/11 01:48:31;;;;;;;28.13;18.27;;;1.10;99.90;;;;;;5035092;28;20355;-85
2020/12/11 01:50:57;;;;;;;28.53;18.73;;;1.10;99.90;;;;;;5034702;28;20108;-85
2020/12/11 01:53:23;;;;;;;25.87;17.70;;;1.20;99.90;;;;;;5034711;28;20026;-85
2020/12/11 01:55:50;;;;;;;25.90;17.50;;;1.10;99.90;;;;;;5034879;28;20564;-85
2020/12/11 01:58:22;;;;;;;27.83;18.33;;;1.10;99.90;;;;;;5034682;28;20083;-85
2020/12/11 02:00:48;;;;;;;26.20;18.03;;;1.10;99.90;;;;;;5034355;28;20502;-85
2020/12/11 02:03:14;;;;;;;29.50;19.67;;;1.10;99.90;;;;;;5034825;28;20040;-85
2020/12/11 02:05:40;;;;;;;30.10;19.97;;;1.10;99.90;;;;;;5034937;28;20037;-85
2020/12/11 02:08:05;;;;;;;25.47;17.60;;;1.10;99.90;;;;;;5033031;28;20025;-85
2020/12/11 02:10:31;;;;;;;29.60;17.90;;;1.10;99.90;;;;;;5033605;28;20045;-85
2020/12/11 02:13:07;;;;;;;29.63;19.23;;;1.10;99.90;;;;;;5034301;28;20113;-85
2020/12/11 02:15:33;;;;;;;29.03;19.20;;;1.10;99.90;;;;;;5034283;28;20097;-85
2020/12/11 02:17:59;;;;;;;31.43;20.57;;;1.10;99.90;;;;;;5034195;28;20109;-85
2020/12/11 02:20:25;;;;;;;28.40;18.67;;;1.00;99.90;;;;;;5016403;28;20057;-85
2020/12/11 02:22:50;;;;;;;31.23;20.27;;;1.00;99.90;;;;;;5034188;28;20032;-85
2020/12/11 02:25:16;;;;;;;30.37;19.43;;;1.00;99.90;;;;;;5034230;28;20528;-85
2020/12/11 02:27:44;;;;;;;34.47;19.97;;;1.00;99.90;;;;;;5016835;28;20120;-85
2020/12/11 02:30:10;;;;;;;33.67;20.23;;;0.90;99.90;;;;;;5022889;28;20064;-85
2020/12/11 02:32:35;;;;;;;30.27;19.60;;;0.90;99.90;;;;;;5033865;28;20029;-85
2020/12/11 02:35:02;;;;;;;30.53;19.07;;;0.90;99.90;;;;;;5033831;28;20021;-85
2020/12/11 02:37:27;;;;;;;32.60;20.27;;;0.90;99.90;;;;;;5033693;28;20026;-85
2020/12/11 02:39:53;;;;;;;30.23;19.87;;;0.90;99.90;;;;;;5033796;28;20036;-85
2020/12/11 02:42:18;;;;;;;35.20;21.20;;;0.90;99.90;;;;;;5034086;28;20108;-85
2020/12/11 02:44:44;;;;;;;30.50;19.13;;;0.80;99.90;;;;;;5018172;28;20030;-85
2020/12/11 02:47:13;;;;;;;28.20;18.83;;;0.80;99.90;;;;;;5033350;28;20025;-86
2020/12/11 02:49:38;;;;;;;30.17;19.70;;;0.80;99.90;;;;;;5033497;28;20037;-85
2020/12/11 02:52:04;;;;;;;29.30;19.13;;;0.80;99.90;;;;;;5033764;28;20029;-85
2020/12/11 02:54:30;;;;;;;30.40;19.67;;;0.70;99.90;;;;;;5034176;28;20108;-85
2020/12/11 02:56:55;;;;;;;27.60;18.70;;;0.80;99.90;;;;;;5033889;28;20029;-85
2020/12/11 02:59:21;;;;;;;28.07;19.07;;;0.80;99.90;;;;;;5033266;28;20050;-86
2020/12/11 03:01:46;;;;;;;27.63;18.93;;;0.70;99.90;;;;;;5033447;28;20328;-85
2020/12/11 03:04:12;;;;;;;27.17;18.20;;;0.70;99.90;;;;;;5015676;28;20029;-85
2020/12/11 03:06:37;;;;;;;25.83;18.13;;;0.70;99.90;;;;;;5033347;28;20030;-85
2020/12/11 03:09:03;;;;;;;26.53;17.63;;;0.70;99.90;;;;;;5015652;28;20051;-85
2020/12/11 03:11:29;;;;;;;28.20;18.10;;;0.70;99.90;;;;;;5015480;28;20359;-85
2020/12/11 03:13:54;;;;;;;26.80;18.57;;;0.60;99.90;;;;;;5033488;28;20382;-85
2020/12/11 03:16:20;;;;;;;26.43;17.80;;;0.60;99.90;;;;;;5033316;28;20462;-85
2020/12/11 03:18:47;;;;;;;27.43;18.00;;;0.60;99.90;;;;;;5033224;28;20034;-85
2020/12/11 03:21:13;;;;;;;27.80;18.70;;;0.50;99.90;;;;;;5015292;28;20462;-85
2020/12/11 03:23:38;;;;;;;28.97;19.00;;;0.50;99.90;;;;;;5033108;28;20029;-85
2020/12/11 03:26:04;;;;;;;27.23;18.30;;;0.50;99.90;;;;;;5033401;28;20518;-85
2020/12/11 03:28:31;;;;;;;28.43;18.10;;;0.40;99.90;;;;;;5033648;28;20029;-85
2020/12/11 03:30:57;;;;;;;27.97;18.63;;;0.40;99.90;;;;;;5033817;28;20037;-92
2020/12/11 03:33:22;;;;;;;26.47;18.57;;;0.30;99.90;;;;;;5034020;28;20370;-92
2020/12/11 03:35:48;;;;;;;30.00;18.57;;;0.30;99.90;;;;;;5033694;28;20025;-91
2020/12/11 03:38:13;;;;;;;30.80;19.57;;;0.20;99.90;;;;;;5034022;28;20079;-85
2020/12/11 03:40:39;;;;;;;28.00;19.10;;;0.20;99.90;;;;;;5032797;28;20037;-85
2020/12/11 03:43:04;;;;;;;30.53;19.53;;;0.20;99.90;;;;;;5032803;28;20095;-86
2020/12/11 03:45:30;;;;;;;30.27;19.00;;;0.10;99.90;;;;;;5033162;28;20076;-85
2020/12/11 03:47:55;;;;;;;28.13;19.07;;;0.00;99.90;;;;;;5033013;28;20049;-85
2020/12/11 03:50:21;;;;;;;29.13;18.27;;;0.00;99.90;;;;;;5032860;28;20117;-85
2020/12/11 03:52:46;;;;;;;28.23;18.90;;;-0.10;99.90;;;;;;5015236;28;20076;-85
2020/12/11 03:55:12;;;;;;;29.23;19.40;;;-0.10;99.90;;;;;;5033113;28;20053;-85
2020/12/11 03:57:37;;;;;;;27.77;18.67;;;-0.20;99.90;;;;;;5032795;28;20104;-84
2020/12/11 04:00:04;;;;;;;31.07;18.97;;;-0.20;99.90;;;;;;5033008;28;20057;-84
2020/12/11 04:02:29;;;;;;;32.20;20.10;;;-0.30;99.90;;;;;;5033225;28;20152;-84
2020/12/11 04:04:55;;;;;;;35.43;22.57;;;-0.40;99.90;;;;;;5032907;28;20025;-86
2020/12/11 04:07:20;;;;;;;35.50;22.53;;;-0.40;99.90;;;;;;5032595;28;20116;-87
2020/12/11 04:09:46;;;;;;;33.77;20.60;;;-0.40;99.90;;;;;;5032382;28;20096;-87
2020/12/11 04:12:11;;;;;;;31.90;20.00;;;-0.50;99.90;;;;;;5032392;28;20026;-86
2020/12/11 04:14:37;;;;;;;34.43;21.07;;;-0.50;99.90;;;;;;5014715;28;20025;-87
2020/12/11 04:17:03;;;;;;;32.17;20.47;;;-0.50;99.90;;;;;;5032614;28;20451;-87
2020/12/11 04:19:28;;;;;;;33.23;20.03;;;-0.60;99.90;;;;;;5032669;28;20029;-85
2020/12/11 04:21:54;;;;;;;30.47;19.60;;;-0.60;99.90;;;;;;5032939;28;20022;-85
2020/12/11 04:24:21;;;;;;;35.97;20.93;;;-0.60;99.90;;;;;;5032525;28;20018;-85
2020/12/11 04:26:47;;;;;;;34.57;20.67;;;-0.70;99.90;;;;;;5032576;28;20030;-85
2020/12/11 04:29:13;;;;;;;32.73;20.37;;;-0.70;99.90;;;;;;5032379;28;20028;-85
2020/12/11 04:31:39;;;;;;;31.33;20.13;;;-0.70;99.90;;;;;;5032458;28;20030;-85
2020/12/11 04:34:05;;;;;;;34.63;21.63;;;-0.70;99.90;;;;;;5036456;28;20025;-86
2020/12/11 04:36:31;;;;;;;33.27;20.30;;;-0.70;99.90;;;;;;5046715;28;20443;-85
2020/12/11 04:38:57;;;;;;;33.03;20.70;;;-0.70;99.90;;;;;;5035804;28;20112;-87
2020/12/11 04:41:27;;;;;;;33.87;21.30;;;-0.70;99.90;;;;;;5036254;28;20104;-87
2020/12/11 04:43:55;;;;;;;37.60;21.97;;;-0.80;99.90;;;;;;5035790;28;20079;-87
2020/12/11 04:46:26;;;;;;;33.23;20.53;;;-0.80;99.90;;;;;;5021853;28;20377;-87
2020/12/11 04:48:53;;;;;;;29.70;19.50;;;-0.80;99.90;;;;;;5017919;28;20338;-85
2020/12/11 04:51:20;;;;;;;33.80;20.37;;;-0.80;99.90;;;;;;5017686;28;20075;-85
2020/12/11 04:53:47;;;;;;;31.47;19.67;;;-0.80;99.90;;;;;;5035675;28;20090;-84
2020/12/11 04:56:13;;;;;;;36.00;23.03;;;-0.80;99.90;;;;;;5014728;28;20022;-84
2020/12/11 04:58:44;;;;;;;41.30;23.97;;;-0.90;99.90;;;;;;5015884;28;20037;-84
2020/12/11 05:01:15;;;;;;;42.50;24.53;;;-0.90;99.90;;;;;;5031752;28;20504;-84
2020/12/11 05:03:41;;;;;;;44.33;27.87;;;-0.90;99.90;;;;;;5017633;28;20060;-84
2020/12/11 05:06:06;;;;;;;52.13;30.27;;;-0.90;99.90;;;;;;5035483;28;20029;-84
2020/12/11 05:08:32;;;;;;;44.00;26.47;;;-0.90;99.90;;;;;;5035786;28;20087;-84
2020/12/11 05:10:57;;;;;;;42.37;24.63;;;-0.90;99.90;;;;;;5035290;28;20532;-84
2020/12/11 05:13:24;;;;;;;42.27;24.00;;;-1.00;99.90;;;;;;5035326;28;20026;-84
2020/12/11 05:16:11;;;;;;;38.60;22.27;;;-1.00;99.90;;;;;;5035696;28;20026;-84
2020/12/11 05:18:38;;;;;;;42.07;22.53;;;-1.00;99.90;;;;;;5035705;28;20048;-84
2020/12/11 05:21:14;;;;;;;42.43;23.00;;;-1.00;99.90;;;;;;5035189;28;20033;-84
2020/12/11 05:24:03;;;;;;;49.20;25.07;;;-1.00;99.90;;;;;;5017347;28;20030;-84
2020/12/11 05:26:31;;;;;;;49.67;25.17;;;-1.00;99.90;;;;;;5017488;28;20033;-83
2020/12/11 05:28:57;;;;;;;45.10;24.37;;;-1.00;99.90;;;;;;5035340;28;20030;-83
2020/12/11 05:31:23;;;;;;;46.30;25.67;;;-1.10;99.90;;;;;;5035183;28;20180;-84
2020/12/11 05:34:07;;;;;;;49.50;28.37;;;-1.10;99.90;;;;;;5034954;28;20022;-83
2020/12/11 05:36:50;;;;;;;53.70;27.83;;;-1.10;99.90;;;;;;5035223;28;20022;-83
2020/12/11 05:39:33;;;;;;;47.07;24.83;;;-1.10;99.90;;;;;;5035361;28;20014;-83
2020/12/11 05:42:01;;;;;;;52.53;27.97;;;-1.10;99.90;;;;;;5036366;28;20026;-83
2020/12/11 05:44:27;;;;;;;60.07;31.53;;;-1.10;99.90;;;;;;5019640;28;20022;-86
2020/12/11 05:46:54;;;;;;;58.43;33.07;;;-1.10;99.90;;;;;;5030183;28;20029;-86
2020/12/11 05:49:30;;;;;;;67.50;37.07;;;-1.10;99.90;;;;;;5033310;28;20033;-86
2020/12/11 05:52:15;;;;;;;57.87;28.70;;;-1.20;99.90;;;;;;5034256;28;20032;-86
2020/12/11 05:54:42;;;;;;;52.75;26.42;;;-1.20;99.90;;;;;;5016509;28;20375;-90
2020/12/11 05:57:08;;;;;;;55.60;27.60;;;-1.20;99.90;;;;;;5030264;28;20040;-91
2020/12/11 05:59:36;;;;;;;57.20;29.47;;;-1.20;99.90;;;;;;5017486;28;20053;-91
2020/12/11 06:02:03;;;;;;;63.03;29.00;;;-1.20;99.90;;;;;;5025306;28;20072;-90
2020/12/11 06:04:29;;;;;;;54.07;26.47;;;-1.20;99.90;;;;;;5034260;28;20014;-91
2020/12/11 06:06:56;;;;;;;54.07;27.57;;;-1.10;99.90;;;;;;5031912;28;20022;-90
2020/12/11 06:09:31;;;;;;;57.80;27.57;;;-1.10;99.90;;;;;;5030988;28;20053;-91
2020/12/11 06:11:59;;;;;;;52.95;25.52;;;-1.00;99.90;;;;;;5023866;28;20029;-92
2020/12/11 06:14:32;;;;;;;58.03;30.00;;;-0.90;99.90;;;;;;5036601;28;20022;-91
2020/12/11 06:17:00;;;;;;;49.40;24.60;;;-0.90;99.90;;;;;;5027820;28;20071;-91
2020/12/11 06:19:27;;;;;;;47.57;24.60;;;-0.80;99.90;;;;;;5036163;28;20108;-91
2020/12/11 06:21:53;;;;;;;50.20;24.80;;;-0.80;99.90;;;;;;5018373;28;20104;-91
2020/12/11 06:24:31;;;;;;;45.73;24.57;;;-0.70;99.90;;;;;;5031949;28;20052;-91
2020/12/11 06:26:58;;;;;;;51.40;27.13;;;-0.70;99.90;;;;;;5031315;28;20068;-86
2020/12/11 06:29:32;;;;;;;47.13;24.07;;;-0.70;99.90;;;;;;5011188;28;20026;-86
2020/12/11 06:31:58;;;;;;;42.83;22.97;;;-0.60;99.90;;;;;;5031293;28;20101;-74
2020/12/11 06:34:24;;;;;;;48.10;26.83;;;-0.60;99.90;;;;;;5027861;28;20026;-85
2020/12/11 06:36:51;;;;;;;39.93;21.93;;;-0.60;99.90;;;;;;5032183;28;20048;-84
2020/12/11 06:39:47;;;;;;;37.97;21.60;;;-0.60;99.90;;;;;;5033108;28;20536;-90
2020/12/11 06:42:35;;;;;;;40.15;21.45;;;-0.60;99.90;;;;;;5009705;28;20056;-83
2020/12/11 06:45:14;;;;;;;39.27;21.90;;;-0.60;99.90;;;;;;5014760;28;20033;-82
2020/12/11 06:47:56;;;;;;;36.03;19.73;;;-0.60;99.90;;;;;;5030936;28;20037;-83
2020/12/11 06:50:31;;;;;;;40.17;21.67;;;-0.50;99.90;;;;;;5024115;28;20021;-83
2020/12/11 06:52:57;;;;;;;37.05;21.13;;;-0.50;99.90;;;;;;5014248;28;20799;-83
2020/12/11 06:55:49;;;;;;;36.43;20.30;;;-0.50;99.90;;;;;;5027116;28;20021;-83
2020/12/11 06:58:21;;;;;;;38.53;20.17;;;-0.40;99.90;;;;;;5028760;28;20025;-83
2020/12/11 07:00:51;;;;;;;39.30;21.07;;;-0.40;99.90;;;;;;5030653;28;20041;-83
2020/12/11 07:03:20;;;;;;;41.10;21.77;;;-0.40;99.90;;;;;;5029670;28;20076;-82
2020/12/11 07:05:55;;;;;;;44.40;23.80;;;-0.40;99.90;;;;;;5030484;28;20038;-84
2020/12/11 07:08:20;;;;;;;44.42;22.95;;;-0.40;99.90;;;;;;5031946;28;20029;-83
2020/12/11 07:10:46;;;;;;;42.27;22.90;;;-0.40;99.90;;;;;;5031158;28;20033;-83
2020/12/11 07:13:12;;;;;;;46.67;24.37;;;-0.40;99.90;;;;;;5031314;28;20032;-82
2020/12/11 07:15:38;;;;;;;45.60;24.23;;;-0.40;99.90;;;;;;5032338;28;20386;-84
2020/12/11 07:18:12;;;;;;;46.67;23.13;;;-0.40;99.90;;;;;;5033273;28;20377;-86
2020/12/11 07:20:38;;;;;;;47.07;25.10;;;-0.30;99.90;;;;;;5033717;28;20040;-87
2020/12/11 07:23:04;;;;;;;47.83;23.30;;;-0.30;99.90;;;;;;5038417;28;20029;-86
2020/12/11 07:25:34;;;;;;;43.73;22.97;;;-0.30;99.90;;;;;;5031437;28;20381;-86
2020/12/11 07:28:01;;;;;;;47.20;24.43;;;-0.20;99.90;;;;;;5015350;28;20037;-86
2020/12/11 07:30:27;;;;;;;41.87;22.87;;;-0.30;99.90;;;;;;5032446;28;20030;-86
2020/12/11 07:32:56;;;;;;;37.87;21.27;;;-0.20;99.90;;;;;;5033650;28;20032;-85
2020/12/11 07:35:23;;;;;;;43.00;23.10;;;-0.20;99.90;;;;;;5032912;28;20021;-86
2020/12/11 07:37:50;;;;;;;48.83;24.67;;;-0.20;99.90;;;;;;5032735;28;20352;-86
2020/12/11 07:40:17;;;;;;;43.67;24.23;;;-0.20;99.90;;;;;;5023572;28;20025;-86
2020/12/11 07:42:44;;;;;;;41.03;22.57;;;-0.10;99.90;;;;;;5017011;28;20064;-87
2020/12/11 07:45:09;;;;;;;43.70;23.57;;;0.00;99.90;;;;;;5032824;28;20075;-86
2020/12/11 07:47:35;;;;;;;43.60;23.63;;;-0.10;99.90;;;;;;5032685;28;20084;-86
2020/12/11 07:50:06;;;;;;;56.37;29.20;;;0.00;99.90;;;;;;5030393;28;20033;-86
2020/12/11 07:52:32;;;;;;;37.37;22.03;;;0.00;99.90;;;;;;5032655;28;20041;-86
2020/12/11 07:54:58;;;;;;;41.47;23.23;;;0.00;99.90;;;;;;5024995;28;20482;-86
2020/12/11 07:57:23;;;;;;;41.87;21.87;;;0.00;99.90;;;;;;5045734;28;20040;-86
2020/12/11 07:59:59;;;;;;;44.40;23.27;;;0.00;99.90;;;;;;5033346;28;20049;-86
2020/12/11 08:02:25;;;;;;;44.30;22.60;;;0.00;99.90;;;;;;5044466;28;20398;-86
2020/12/11 08:04:52;;;;;;;37.63;21.10;;;0.00;99.90;;;;;;5018477;28;20029;-86
2020/12/11 08:07:24;;;;;;;35.47;19.73;;;0.00;99.90;;;;;;5032932;28;20057;-87
2020/12/11 08:09:50;;;;;;;38.77;20.83;;;0.00;99.90;;;;;;5035046;28;20024;-86
2020/12/11 08:12:16;;;;;;;48.03;22.47;;;0.10;99.90;;;;;;5050548;28;20043;-87
2020/12/11 08:14:42;;;;;;;47.50;21.37;;;0.10;99.90;;;;;;5049309;28;20021;-84
2020/12/11 08:17:09;;;;;;;45.57;23.13;;;0.10;99.90;;;;;;5037606;28;20053;-84
2020/12/11 08:19:34;;;;;;;36.83;20.93;;;0.20;99.90;;;;;;5041818;28;20013;-86
2020/12/11 08:22:13;;;;;;;40.93;21.80;;;0.20;99.90;;;;;;5036575;28;20028;-86
2020/12/11 08:24:39;;;;;;;39.07;20.30;;;0.30;99.90;;;;;;5046619;28;20017;-86
2020/12/11 08:27:05;;;;;;;43.97;21.37;;;0.30;99.90;;;;;;5032809;28;20024;-86
2020/12/11 08:29:30;;;;;;;40.13;22.00;;;0.40;99.90;;;;;;5036184;28;20021;-86
2020/12/11 08:31:56;;;;;;;45.80;23.40;;;0.50;99.90;;;;;;5036626;28;20036;-86
2020/12/11 08:34:28;;;;;;;36.67;20.10;;;0.50;99.90;;;;;;5036257;28;20092;-86
2020/12/11 08:37:01;;;;;;;43.70;21.53;;;0.60;99.90;;;;;;5025914;28;20018;-86
2020/12/11 08:39:28;;;;;;;61.63;32.23;;;0.60;99.90;;;;;;5041225;28;20074;-86
2020/12/11 08:42:08;;;;;;;54.90;29.07;;;0.70;99.90;;;;;;5015693;28;20025;-86
2020/12/11 08:49:44;;;;;;;33.57;19.83;;;0.90;99.90;;;;;;5036292;28;20374;-86
2020/12/11 08:52:11;;;;;;;30.50;17.77;;;0.90;99.90;;;;;;5036221;28;20032;-86
2020/12/11 08:54:37;;;;;;;40.30;23.93;;;0.90;99.90;;;;;;5032152;28;20041;-86
2020/12/11 08:57:02;;;;;;;29.07;17.43;;;1.00;99.90;;;;;;5016440;28;20026;-86
2020/12/11 08:59:30;;;;;;;27.67;16.90;;;0.90;99.90;;;;;;5017867;28;20125;-89
2020/12/11 09:01:56;;;;;;;34.13;19.00;;;1.00;99.90;;;;;;5032093;28;20375;-89
2020/12/11 09:04:21;;;;;;;35.77;19.67;;;1.00;99.90;;;;;;5032451;28;20018;-89
2020/12/11 09:06:47;;;;;;;31.37;17.90;;;1.10;99.90;;;;;;5028966;28;20083;-88
2020/12/11 09:09:12;;;;;;;30.13;17.27;;;1.10;99.90;;;;;;5027597;28;20058;-88
2020/12/11 09:11:38;;;;;;;28.27;16.97;;;1.10;99.90;;;;;;5030431;28;20088;-89
2020/12/11 09:14:03;;;;;;;31.43;17.77;;;1.10;99.90;;;;;;5033489;28;20025;-89
2020/12/11 09:16:29;;;;;;;28.03;16.87;;;1.20;99.90;;;;;;5019922;28;20021;-89
2020/12/11 09:18:54;;;;;;;28.53;17.07;;;1.20;99.90;;;;;;5035335;28;20029;-90
2020/12/11 09:21:20;;;;;;;29.10;17.13;;;1.20;99.90;;;;;;5035725;28;20052;-89
2020/12/11 09:23:46;;;;;;;32.27;18.03;;;1.30;99.90;;;;;;5033306;28;20526;-89
2020/12/11 09:26:11;;;;;;;28.87;17.87;;;1.20;99.90;;;;;;5027866;28;20026;-89
2020/12/11 09:28:39;;;;;;;32.77;19.00;;;1.30;99.90;;;;;;5035245;28;20129;-90
2020/12/11 09:31:04;;;;;;;32.63;19.33;;;1.40;99.90;;;;;;5035275;28;20498;-90
2020/12/11 09:33:35;;;;;;;27.27;16.60;;;1.30;99.90;;;;;;5012426;28;20107;-90
2020/12/11 09:36:02;;;;;;;32.13;18.13;;;1.30;99.90;;;;;;5034989;28;20021;-89
2020/12/11 09:38:28;;;;;;;46.07;24.83;;;1.40;99.90;;;;;;5017390;28;20471;-89
2020/12/11 09:40:58;;;;;;;47.43;25.00;;;1.50;99.90;;;;;;5020011;28;20072;-89
2020/12/11 09:46:05;;;;;;;58.53;32.43;;;1.60;99.90;;;;;;5035165;28;20096;-89
2020/12/11 09:51:09;;;;;;;31.47;17.73;;;1.70;99.90;;;;;;5035189;28;20022;-89
2020/12/11 09:56:26;;;;;;;36.00;21.00;;;1.70;99.90;;;;;;5031897;28;20017;-89
2020/12/11 09:59:00;;;;;;;32.30;16.10;;;1.70;99.90;;;;;;5034930;28;20021;-89
2020/12/11 10:01:45;;;;;;;52.38;28.55;;;1.70;99.90;;;;;;5033018;28;20416;-89
2020/12/11 10:04:11;;;;;;;32.67;19.47;;;1.80;99.90;;;;;;5035156;28;20042;-89
2020/12/11 10:06:36;;;;;;;24.70;15.40;;;1.90;99.90;;;;;;5042271;28;20398;-88
2020/12/11 10:09:03;;;;;;;34.37;18.40;;;2.00;99.90;;;;;;5037399;28;20546;-89
2020/12/11 10:11:28;;;;;;;29.40;16.80;;;2.00;99.90;;;;;;5033736;28;20033;-89
2020/12/11 10:14:10;;;;;;;89.97;46.73;;;2.00;99.90;;;;;;5033744;28;20094;-89
2020/12/11 10:16:36;;;;;;;41.20;24.33;;;2.10;99.90;;;;;;5033565;28;20041;-90
2020/12/11 10:19:01;;;;;;;26.30;14.93;;;2.20;99.90;;;;;;5034588;28;20022;-89
2020/12/11 10:21:29;;;;;;;34.37;18.90;;;2.20;99.90;;;;;;5034136;28;20037;-89
2020/12/11 10:23:54;;;;;;;28.27;16.73;;;2.30;99.90;;;;;;5034848;28;20021;-89
2020/12/11 10:26:20;;;;;;;49.87;27.60;;;2.30;99.90;;;;;;5034186;28;20485;-89
2020/12/11 10:28:45;;;;;;;26.47;16.47;;;2.40;99.90;;;;;;5034232;28;20410;-89
2020/12/11 10:31:11;;;;;;;33.27;20.30;;;2.50;99.90;;;;;;5033137;28;20144;-89
2020/12/11 10:33:37;;;;;;;28.53;16.67;;;2.60;99.90;;;;;;5034042;28;20419;-89
2020/12/11 10:36:02;;;;;;;29.93;17.87;;;2.70;99.90;;;;;;5033565;28;20033;-85
2020/12/11 10:38:28;;;;;;;31.10;18.67;;;2.70;99.90;;;;;;5032451;28;20434;-85
2020/12/11 10:40:54;;;;;;;20.97;13.57;;;2.70;99.90;;;;;;5033230;28;20060;-86
2020/12/11 10:43:19;;;;;;;21.37;13.20;;;2.80;99.90;;;;;;5017546;28;20057;-86
2020/12/11 10:45:45;;;;;;;18.50;12.30;;;2.80;99.90;;;;;;5033227;28;20033;-86
2020/12/11 10:48:10;;;;;;;20.43;12.10;;;2.70;99.90;;;;;;5032971;28;20079;-86
2020/12/11 10:50:36;;;;;;;18.33;11.30;;;2.70;99.90;;;;;;5032901;28;20041;-85
2020/12/11 10:53:01;;;;;;;17.60;11.27;;;2.70;99.90;;;;;;5033426;28;20084;-86
2020/12/11 10:55:27;;;;;;;25.70;14.30;;;2.70;99.90;;;;;;5025590;28;20053;-86
2020/12/11 10:57:53;;;;;;;22.43;14.20;;;2.80;99.90;;;;;;5019189;28;20033;-86
2020/12/11 11:00:19;;;;;;;18.73;12.03;;;2.90;99.90;;;;;;5032885;28;20124;-85
2020/12/11 11:02:44;;;;;;;23.80;12.97;;;2.90;99.90;;;;;;5032992;28;20083;-85
2020/12/11 11:05:11;;;;;;;24.57;14.93;;;3.00;99.90;;;;;;5032945;28;20044;-85
2020/12/11 11:07:36;;;;;;;18.50;11.70;;;2.90;99.90;;;;;;5030722;28;20049;-84
2020/12/11 11:12:40;;;;;;;21.77;13.20;;;3.00;99.90;;;;;;5031017;28;20029;-84
2020/12/11 11:25:50;;;;;;;21.77;14.83;;;3.20;99.90;;;;;;5031033;28;20061;-83
2020/12/11 11:28:16;;;;;;;26.30;13.17;;;3.30;99.90;;;;;;5030637;28;20421;-83
2020/12/11 11:30:41;;;;;;;26.13;15.03;;;3.20;99.90;;;;;;5030734;28;20121;-83
2020/12/11 11:33:07;;;;;;;20.87;12.80;;;3.20;99.90;;;;;;5033257;28;20029;-81
2020/12/11 11:35:32;;;;;;;37.63;21.30;;;3.30;99.90;;;;;;5022764;28;20029;-82
2020/12/11 11:37:58;;;;;;;24.73;14.63;;;3.40;99.90;;;;;;5025304;28;20057;-81
2020/12/11 11:40:24;;;;;;;30.50;18.50;;;3.50;99.90;;;;;;5030421;28;20033;-81
2020/12/11 11:42:51;;;;;;;23.23;14.03;;;3.50;99.90;;;;;;5031564;28;20029;-81
2020/12/11 11:45:20;;;;;;;23.73;13.87;;;3.60;99.90;;;;;;5034633;28;20037;-82
2020/12/11 11:47:50;;;;;;;24.50;14.53;;;3.60;99.90;;;;;;5024481;28;20108;-81
2020/12/11 11:50:39;;;;;;;19.40;12.27;;;3.60;99.90;;;;;;5029913;28;20433;-85
2020/12/11 11:53:12;;;;;;;21.40;12.97;;;3.70;99.90;;;;;;5038265;28;20032;-84
2020/12/11 11:55:40;;;;;;;22.50;11.60;;;3.70;99.90;;;;;;5043779;28;20025;-84
2020/12/11 11:58:06;;;;;;;19.67;12.27;;;3.80;99.90;;;;;;5051224;28;20120;-84
2020/12/11 12:00:32;;;;;;;20.03;13.43;;;3.80;99.90;;;;;;5053753;28;20049;-85
2020/12/11 12:02:57;;;;;;;21.00;13.17;;;3.80;99.90;;;;;;5051611;28;20109;-84
2020/12/11 12:05:23;;;;;;;22.23;12.63;;;3.80;99.90;;;;;;5046024;28;20039;-85
2020/12/11 12:07:48;;;;;;;19.40;11.43;;;3.80;99.90;;;;;;5041003;28;20051;-85
2020/12/11 12:10:14;;;;;;;27.17;14.87;;;3.80;99.90;;;;;;5036189;28;20040;-85
2020/12/11 12:12:43;;;;;;;19.80;13.03;;;3.80;99.90;;;;;;5042913;28;20108;-85
2020/12/11 12:15:13;;;;;;;22.17;14.57;;;3.80;99.90;;;;;;5036841;28;20013;-87
2020/12/11 12:17:44;;;;;;;23.73;14.60;;;3.90;99.90;;;;;;5035033;28;20030;-87
2020/12/11 12:20:16;;;;;;;24.57;14.80;;;3.90;99.90;;;;;;5035576;28;20025;-87
2020/12/11 12:30:26;;;;;;;20.67;13.70;;;4.00;99.90;;;;;;5036563;28;20026;-89
2020/12/11 12:38:44;;;;;;;24.17;14.57;;;3.90;99.90;;;;;;5036075;28;20101;-86
2020/12/11 12:43:55;;;;;;;26.35;14.27;;;3.80;99.90;;;;;;5030460;28;20083;-86
2020/12/11 12:46:20;;;;;;;20.77;12.83;;;3.70;99.90;;;;;;5036023;28;20872;-86
2020/12/11 12:48:46;;;;;;;22.70;13.53;;;3.70;99.90;;;;;;5035334;28;20103;-85
2020/12/11 12:51:12;;;;;;;20.63;13.83;;;3.70;99.90;;;;;;5031491;28;20022;-86
2020/12/11 12:53:37;;;;;;;31.83;20.93;;;3.80;99.90;;;;;;5035936;28;20103;-86
2020/12/11 12:58:51;;;;;;;20.20;13.13;;;3.80;99.90;;;;;;5035464;28;20529;-85
2020/12/11 13:01:28;;;;;;;19.90;12.57;;;3.80;99.90;;;;;;5022512;28;20033;-86
2020/12/11 13:06:25;;;;;;;23.40;16.37;;;3.70;99.90;;;;;;5035409;28;20356;-86
2020/12/11 13:08:51;;;;;;;26.27;14.90;;;3.60;99.90;;;;;;5033107;28;20040;-87
2020/12/11 13:11:16;;;;;;;26.47;14.93;;;3.60;99.90;;;;;;5017469;28;20402;-86
2020/12/11 13:13:42;;;;;;;31.97;16.80;;;3.50;99.90;;;;;;5032331;28;20132;-86
2020/12/11 13:16:07;;;;;;;43.10;20.37;;;3.40;99.90;;;;;;5033979;28;20058;-86
2020/12/11 13:18:34;;;;;;;32.90;17.10;;;3.30;99.90;;;;;;5034499;28;20052;-86
2020/12/11 13:21:03;;;;;;;27.73;15.57;;;3.30;99.90;;;;;;5035317;28;20030;-86
2020/12/11 13:28:44;;;;;;;56.27;24.10;;;3.20;99.90;;;;;;5033671;28;20025;-85